createdAt,value
2022-10-15T00:01:21.082Z,9.90
2022-10-15T00:03:47.918Z,9.98
2022-10-15T00:06:19.189Z,10.45
2022-10-15T00:08:46.845Z,10.95
2022-10-15T00:11:17.909Z,10.48
2022-10-15T00:13:45.099Z,9.07
2022-10-15T00:16:19.940Z,9.35
2022-10-15T00:18:46.738Z,11.00
2022-10-15T00:21:16.751Z,9.02
2022-10-15T00:23:44.334Z,10.98
2022-10-15T00:26:16.595Z,13.77
2022-10-15T00:28:43.741Z,12.48
2022-10-15T00:31:16.891Z,12.50
2022-10-15T00:33:45.283Z,11.80
2022-10-15T00:36:18.918Z,9.02
2022-10-15T00:38:45.966Z,8.32
2022-10-15T00:41:28.131Z,8.55
2022-10-15T00:46:42.814Z,7.55
2022-10-15T00:49:33.796Z,9.18
2022-10-15T00:52:12.638Z,8.48
2022-10-15T00:54:45.098Z,8.25
2022-10-15T00:57:13.360Z,8.57
2022-10-15T00:59:47.967Z,9.80
2022-10-15T01:02:15.966Z,9.52
2022-10-15T01:04:42.694Z,11.45
2022-10-15T01:07:09.634Z,9.43
2022-10-15T01:09:36.530Z,10.95
2022-10-15T01:12:04.201Z,10.95
2022-10-15T01:14:40.243Z,10.82
2022-10-15T01:17:50.865Z,11.90
2022-10-15T01:21:01.307Z,13.43
2022-10-15T01:23:31.001Z,13.48
2022-10-15T01:26:44.107Z,14.48
2022-10-15T01:29:40.834Z,13.57
2022-10-15T01:32:27.973Z,13.77
2022-10-15T01:35:12.959Z,12.63
2022-10-15T01:38:03.610Z,13.60
2022-10-15T01:40:58.801Z,13.88
2022-10-15T01:43:56.710Z,13.65
2022-10-15T01:46:41.064Z,13.27
2022-10-15T01:49:11.828Z,14.18
2022-10-15T01:51:41.347Z,13.30
2022-10-15T01:54:13.600Z,13.00
2022-10-15T01:56:46.709Z,12.50
2022-10-15T01:59:13.647Z,11.90
2022-10-15T02:04:30.391Z,13.20
2022-10-15T02:07:10.348Z,12.18
2022-10-15T02:10:02.159Z,12.48
2022-10-15T02:12:49.142Z,12.65
2022-10-15T02:15:31.000Z,11.50
2022-10-15T02:18:15.261Z,13.32
2022-10-15T02:21:09.952Z,13.95
2022-10-15T02:24:02.594Z,14.15
2022-10-15T02:26:30.853Z,15.60
2022-10-15T02:29:00.507Z,15.68
2022-10-15T02:31:31.115Z,14.95
2022-10-15T02:34:04.655Z,15.60
2022-10-15T02:36:31.641Z,16.90
2022-10-15T02:39:00.099Z,17.48
2022-10-15T02:41:28.992Z,15.98
2022-10-15T02:43:55.703Z,15.10
2022-10-15T02:46:22.593Z,15.80
2022-10-15T02:48:49.271Z,15.25
2022-10-15T02:51:15.969Z,16.42
2022-10-15T02:53:42.682Z,15.60
2022-10-15T02:56:09.371Z,14.93
2022-10-15T02:58:36.178Z,15.10
2022-10-15T03:01:03.002Z,14.35
2022-10-15T03:03:29.762Z,14.93
2022-10-15T03:05:56.570Z,14.73
2022-10-15T03:08:23.266Z,14.68
2022-10-15T03:10:50.451Z,15.63
2022-10-15T03:13:17.138Z,13.93
2022-10-15T03:15:43.849Z,13.23
2022-10-15T03:18:10.544Z,13.52
2022-10-15T03:20:37.222Z,13.13
2022-10-15T03:23:03.972Z,14.70
2022-10-15T03:25:30.715Z,13.25
2022-10-15T03:27:57.403Z,14.30
2022-10-15T03:30:24.160Z,12.88
2022-10-15T03:32:50.902Z,14.18
2022-10-15T03:35:17.728Z,14.10
2022-10-15T03:37:44.654Z,13.93
2022-10-15T03:40:13.814Z,14.65
2022-10-15T03:42:41.454Z,14.60
2022-10-15T03:45:09.086Z,13.70
2022-10-15T03:47:35.844Z,15.05
2022-10-15T03:50:02.687Z,15.65
2022-10-15T03:52:29.416Z,15.30
2022-10-15T03:54:56.149Z,14.63
2022-10-15T03:57:22.838Z,15.52
2022-10-15T03:59:49.545Z,16.45
2022-10-15T04:02:16.374Z,16.55
2022-10-15T04:04:43.066Z,14.68
2022-10-15T04:07:09.776Z,15.45
2022-10-15T04:09:36.523Z,14.82
2022-10-15T04:12:03.330Z,15.15
2022-10-15T04:14:30.015Z,16.30
2022-10-15T04:16:58.914Z,15.68
2022-10-15T04:19:25.638Z,15.85
2022-10-15T04:21:52.304Z,15.63
2022-10-15T04:24:19.030Z,15.20
2022-10-15T04:26:45.964Z,15.00
2022-10-15T04:29:12.651Z,15.85
2022-10-15T04:31:39.468Z,16.02
2022-10-15T04:34:06.184Z,14.27
2022-10-15T04:36:32.900Z,14.65
2022-10-15T04:39:00.754Z,14.55
2022-10-15T04:41:28.053Z,12.63
2022-10-15T04:43:55.467Z,14.30
2022-10-15T04:46:22.583Z,12.57
2022-10-15T04:48:50.762Z,12.52
2022-10-15T04:51:20.346Z,12.50
2022-10-15T04:53:47.441Z,11.77
2022-10-15T04:56:19.421Z,12.93
2022-10-15T05:01:17.901Z,10.43
2022-10-15T05:03:46.416Z,9.95
2022-10-15T05:06:19.450Z,9.93
2022-10-15T05:08:47.531Z,10.95
2022-10-15T05:11:21.757Z,12.43
2022-10-15T05:13:49.348Z,13.43
2022-10-15T05:16:22.768Z,13.85
2022-10-15T05:18:52.773Z,13.23
2022-10-15T05:21:19.840Z,13.68
2022-10-15T05:23:47.297Z,13.35
2022-10-15T05:26:21.299Z,13.63
2022-10-15T05:28:48.821Z,13.10
2022-10-15T05:31:21.800Z,14.68
2022-10-15T05:33:50.686Z,13.60
2022-10-15T05:36:29.296Z,15.63
2022-10-15T05:38:59.661Z,14.00
2022-10-15T06:01:22.231Z,15.80
2022-10-15T06:03:49.063Z,19.52
2022-10-15T06:06:27.060Z,23.75
2022-10-15T06:08:54.623Z,24.25
2022-10-15T06:11:22.200Z,26.42
2022-10-15T06:13:48.943Z,25.83
2022-10-15T06:16:20.862Z,27.70
2022-10-15T06:18:53.106Z,25.30
2022-10-15T06:21:20.226Z,27.27
2022-10-15T06:23:46.929Z,24.63
2022-10-15T06:26:13.655Z,27.48
2022-10-15T06:28:40.522Z,26.40
2022-10-15T06:31:07.948Z,26.35
2022-10-15T06:33:35.929Z,26.33
2022-10-15T06:36:09.193Z,25.77
2022-10-15T06:38:36.628Z,23.15
2022-10-15T06:41:07.650Z,24.25
2022-10-15T06:43:35.423Z,24.47
2022-10-15T06:46:04.625Z,23.50
2022-10-15T06:48:32.633Z,25.70
2022-10-15T06:51:00.788Z,21.80
2022-10-15T06:53:29.125Z,23.45
2022-10-15T06:56:01.014Z,23.90
2022-10-15T07:01:01.484Z,21.10
2022-10-15T07:03:29.100Z,22.13
2022-10-15T07:05:56.128Z,20.83
2022-10-15T07:08:25.178Z,19.45
2022-10-15T07:10:51.848Z,19.45
2022-10-15T07:13:18.548Z,18.23
2022-10-15T07:15:46.187Z,18.45
2022-10-15T07:18:12.945Z,18.30
2022-10-15T07:20:39.654Z,15.15
2022-10-15T07:23:06.343Z,15.60
2022-10-15T07:25:33.177Z,15.38
2022-10-15T07:27:59.888Z,14.45
2022-10-15T07:30:29.742Z,13.55
2022-10-15T07:32:58.213Z,12.77
2022-10-15T07:35:27.076Z,12.98
2022-10-15T07:37:54.171Z,12.52
2022-10-15T07:40:21.363Z,11.02
2022-10-15T07:42:56.196Z,11.35
2022-10-15T07:45:23.908Z,10.57
2022-10-15T07:47:51.279Z,10.68
2022-10-15T07:50:19.089Z,10.10
2022-10-15T07:52:45.989Z,9.75
2022-10-15T07:55:12.766Z,9.77
2022-10-15T07:57:39.543Z,9.95
2022-10-15T08:00:07.295Z,9.15
2022-10-15T08:02:34.005Z,10.27
2022-10-15T08:05:00.700Z,8.75
2022-10-15T08:07:27.393Z,9.02
2022-10-15T08:09:54.101Z,9.05
2022-10-15T08:12:20.976Z,8.73
2022-10-15T08:14:47.846Z,8.77
2022-10-15T08:17:14.594Z,8.02
2022-10-15T08:19:41.305Z,7.60
2022-10-15T08:22:07.995Z,7.25
2022-10-15T08:24:34.702Z,6.63
2022-10-15T08:27:01.410Z,6.43
2022-10-15T08:29:28.099Z,5.80
2022-10-15T08:31:54.781Z,5.47
2022-10-15T08:34:21.581Z,5.90
2022-10-15T08:36:48.271Z,4.88
2022-10-15T08:39:14.999Z,4.90
2022-10-15T08:41:48.064Z,5.10
2022-10-15T08:44:30.054Z,4.57
2022-10-15T08:47:19.858Z,3.85
2022-10-15T08:50:00.111Z,4.35
2022-10-15T08:52:48.310Z,3.50
2022-10-15T08:55:19.303Z,3.00
2022-10-15T08:58:00.236Z,2.72
2022-10-15T09:01:18.261Z,2.55
2022-10-15T09:04:17.621Z,2.60
2022-10-15T09:06:45.166Z,2.00
2022-10-15T09:09:32.860Z,2.03
2022-10-15T09:12:37.358Z,1.95
2022-10-15T09:15:11.415Z,1.90
2022-10-15T09:17:38.226Z,1.80
2022-10-15T09:20:07.745Z,1.30
2022-10-15T09:22:35.937Z,1.48
2022-10-15T09:25:26.434Z,1.40
2022-10-15T09:27:56.642Z,1.70
2022-10-15T09:30:39.621Z,2.40
2022-10-15T09:33:18.004Z,2.20
2022-10-15T09:35:53.905Z,1.70
2022-10-15T09:38:44.680Z,2.03
2022-10-15T09:41:38.045Z,1.55
2022-10-15T09:44:10.949Z,1.52
2022-10-15T09:46:45.979Z,1.25
2022-10-15T09:49:29.334Z,1.48
2022-10-15T09:52:08.616Z,1.52
2022-10-15T09:54:44.602Z,1.60
2022-10-15T09:57:14.374Z,1.60
2022-10-15T09:59:54.492Z,1.77
2022-10-15T10:02:25.414Z,1.55
2022-10-15T10:04:53.542Z,1.67
2022-10-15T10:07:29.519Z,1.48
2022-10-15T10:10:00.101Z,1.83
2022-10-15T10:12:35.344Z,1.70
2022-10-15T10:15:24.127Z,1.80
2022-10-15T10:17:56.037Z,1.38
2022-10-15T10:20:27.495Z,1.92
2022-10-15T10:22:58.060Z,1.60
2022-10-15T10:25:32.177Z,1.65
2022-10-15T10:28:11.602Z,1.70
2022-10-15T10:30:58.268Z,1.73
2022-10-15T10:33:29.751Z,1.98
2022-10-15T10:35:57.566Z,1.60
2022-10-15T10:38:37.884Z,1.67
2022-10-15T10:41:12.132Z,1.58
2022-10-15T10:43:41.353Z,1.75
2022-10-15T10:46:14.571Z,1.35
2022-10-15T10:48:53.289Z,1.50
2022-10-15T10:51:27.750Z,1.67
2022-10-15T10:54:06.540Z,1.60
2022-10-15T10:56:44.097Z,1.50
2022-10-15T10:59:17.385Z,1.40
2022-10-15T11:01:44.350Z,1.42
2022-10-15T11:04:35.677Z,1.35
2022-10-15T11:07:36.697Z,1.40
2022-10-15T11:10:28.896Z,1.40
2022-10-15T11:15:44.089Z,1.30
2022-10-15T11:18:43.476Z,1.30
2022-10-15T11:22:03.842Z,1.00
2022-10-15T11:24:48.391Z,0.77
2022-10-15T11:27:39.253Z,0.60
2022-10-15T11:30:41.790Z,0.60
2022-10-15T11:34:05.966Z,0.38
2022-10-15T11:37:14.496Z,0.40
2022-10-15T11:40:48.432Z,0.30
2022-10-15T11:43:48.765Z,0.30
2022-10-15T11:46:30.173Z,0.40
2022-10-15T11:49:39.866Z,0.30
2022-10-15T11:52:26.667Z,0.30
2022-10-15T11:54:57.504Z,0.30
2022-10-15T11:57:26.294Z,0.30
2022-10-15T12:00:14.066Z,0.30
2022-10-15T12:02:40.821Z,0.28
2022-10-15T12:05:46.037Z,0.30
2022-10-15T12:08:13.790Z,0.20
2022-10-15T12:10:46.368Z,0.20
2022-10-15T12:13:46.072Z,0.30
2022-10-15T12:16:59.097Z,0.30
2022-10-15T12:19:44.401Z,0.40
2022-10-15T12:22:11.592Z,0.28
2022-10-15T12:24:38.173Z,0.82
2022-10-15T12:27:19.749Z,0.30
2022-10-15T12:35:24.743Z,0.43
2022-10-15T12:37:51.809Z,0.30
2022-10-15T12:40:31.127Z,0.20
2022-10-15T12:43:03.246Z,0.47
2022-10-15T12:45:40.574Z,0.50
2022-10-15T12:48:16.182Z,0.40
2022-10-15T12:50:43.323Z,0.30
2022-10-15T12:53:34.515Z,0.50
2022-10-15T12:56:35.222Z,0.30
2022-10-15T12:59:01.915Z,0.40
2022-10-15T13:01:51.152Z,0.30
2022-10-15T13:04:18.596Z,0.40
2022-10-15T13:06:45.933Z,0.30
2022-10-15T13:09:12.655Z,0.30
2022-10-15T13:11:57.558Z,0.32
2022-10-15T13:14:31.790Z,0.30
2022-10-15T13:17:01.394Z,0.40
2022-10-15T13:20:09.565Z,0.30
2022-10-15T13:22:37.433Z,0.30
2022-10-15T13:25:14.781Z,0.20
2022-10-15T13:27:41.456Z,0.47
2022-10-15T13:30:13.424Z,0.30
2022-10-15T13:32:56.823Z,0.30
2022-10-15T13:35:32.966Z,0.30
2022-10-15T13:38:00.535Z,0.30
2022-10-15T13:40:30.280Z,0.70
2022-10-15T13:43:01.734Z,0.82
2022-10-15T13:47:56.555Z,0.60
2022-10-15T13:50:30.180Z,0.60
2022-10-15T13:53:10.845Z,0.73
2022-10-15T13:55:39.987Z,0.68
2022-10-15T13:58:29.732Z,1.00
2022-10-15T14:01:15.827Z,1.15
2022-10-15T14:03:52.919Z,0.80
2022-10-15T14:06:28.142Z,0.70
2022-10-15T14:08:59.102Z,0.70
2022-10-15T14:11:26.864Z,0.60
2022-10-15T14:13:57.127Z,0.60
2022-10-15T14:16:44.925Z,0.57
2022-10-15T14:19:19.055Z,0.60
2022-10-15T14:21:48.627Z,0.70
2022-10-15T14:24:20.794Z,0.80
2022-10-15T14:26:48.826Z,0.70
2022-10-15T14:29:42.836Z,0.60
2022-10-15T14:32:19.437Z,0.80
2022-10-15T14:34:46.545Z,0.60
2022-10-15T14:37:40.477Z,0.80
2022-10-15T14:40:12.906Z,0.70
2022-10-15T14:43:16.364Z,0.60
2022-10-15T14:45:52.127Z,0.70
2022-10-15T14:48:27.165Z,0.68
2022-10-15T14:50:59.967Z,0.90
2022-10-15T14:53:39.042Z,0.60
2022-10-15T14:56:20.997Z,0.80
2022-10-15T14:59:01.034Z,1.10
2022-10-15T15:01:29.478Z,0.93
2022-10-15T15:03:57.001Z,0.90
2022-10-15T15:06:23.789Z,0.82
2022-10-15T15:08:50.479Z,1.00
2022-10-15T15:11:24.757Z,1.10
2022-10-15T15:13:52.241Z,1.20
2022-10-15T15:16:19.216Z,1.00
2022-10-15T15:18:48.181Z,1.20
2022-10-15T15:21:20.815Z,1.20
2022-10-15T15:23:48.481Z,0.90
2022-10-15T15:26:15.346Z,1.15
2022-10-15T15:28:42.129Z,1.30
2022-10-15T15:31:16.565Z,1.52
2022-10-15T15:33:43.320Z,1.52
2022-10-15T15:36:20.976Z,1.40
2022-10-15T15:38:50.346Z,1.23
2022-10-15T15:41:22.636Z,1.50
2022-10-15T15:43:49.955Z,1.40
2022-10-15T15:46:16.952Z,1.27
2022-10-15T15:48:43.906Z,1.50
2022-10-15T15:51:31.826Z,1.65
2022-10-15T15:53:59.238Z,1.67
2022-10-15T15:56:26.010Z,1.80
2022-10-15T15:58:52.836Z,1.40
2022-10-15T16:01:20.832Z,1.40
2022-10-15T16:03:47.671Z,1.55
2022-10-15T16:06:14.442Z,1.80
2022-10-15T16:08:41.128Z,1.70
2022-10-15T16:11:07.866Z,1.50
2022-10-15T16:13:34.947Z,1.88
2022-10-15T16:16:01.996Z,1.70
2022-10-15T16:18:28.796Z,1.63
2022-10-15T16:20:55.643Z,2.03
2022-10-15T16:23:22.440Z,1.90
2022-10-15T16:25:49.192Z,1.30
2022-10-15T16:28:15.878Z,1.38
2022-10-15T16:30:42.613Z,1.50
2022-10-15T16:33:09.424Z,1.60
2022-10-15T16:35:36.404Z,1.60
2022-10-15T16:38:03.099Z,1.63
2022-10-15T16:40:30.126Z,1.50
2022-10-15T16:42:56.887Z,1.70
2022-10-15T16:45:23.775Z,1.70
2022-10-15T16:47:50.529Z,1.60
2022-10-15T16:50:17.383Z,1.55
2022-10-15T16:52:44.105Z,1.50
2022-10-15T16:55:10.871Z,1.48
2022-10-15T16:57:37.549Z,1.20
2022-10-15T17:00:05.075Z,1.15
2022-10-15T17:02:31.758Z,1.50
2022-10-15T17:04:58.473Z,1.58
2022-10-15T17:07:25.512Z,1.63
2022-10-15T17:09:52.436Z,1.52
2022-10-15T17:12:19.136Z,1.55
2022-10-15T17:14:53.208Z,1.60
2022-10-15T17:17:20.121Z,1.60
2022-10-15T17:19:46.844Z,3.35
2022-10-15T17:22:13.591Z,2.40
2022-10-15T17:24:40.297Z,1.67
2022-10-15T17:27:07.004Z,1.60
2022-10-15T17:29:34.009Z,1.60
2022-10-15T17:32:02.685Z,1.40
2022-10-15T17:34:29.547Z,1.48
2022-10-15T17:36:56.744Z,1.10
2022-10-15T17:39:23.840Z,1.27
2022-10-15T17:41:51.858Z,1.30
2022-10-15T17:44:19.603Z,1.15
2022-10-15T17:46:46.397Z,1.20
2022-10-15T17:49:17.955Z,1.10
2022-10-15T17:51:46.103Z,1.48
2022-10-15T17:54:12.839Z,1.30
2022-10-15T17:56:39.862Z,1.70
2022-10-15T17:59:10.264Z,1.33
2022-10-15T18:01:57.302Z,1.50
2022-10-15T18:04:24.879Z,1.83
2022-10-15T18:06:51.617Z,2.10
2022-10-15T18:09:18.304Z,2.00
2022-10-15T18:11:46.424Z,2.22
2022-10-15T18:14:13.177Z,2.15
2022-10-15T18:16:39.912Z,2.38
2022-10-15T18:19:07.127Z,2.30
2022-10-15T18:21:33.820Z,2.03
2022-10-15T18:24:00.763Z,2.35
2022-10-15T18:26:27.478Z,2.10
2022-10-15T18:28:54.746Z,2.20
2022-10-15T18:31:22.362Z,2.20
2022-10-15T18:33:52.327Z,2.08
2022-10-15T18:36:26.219Z,2.50
2022-10-15T18:38:53.615Z,2.10
2022-10-15T18:41:28.976Z,2.00
2022-10-15T18:44:02.126Z,2.22
2022-10-15T18:46:30.699Z,2.20
2022-10-15T18:48:58.195Z,2.15
2022-10-15T18:51:27.532Z,2.30
2022-10-15T18:53:54.965Z,2.17
2022-10-15T18:56:22.461Z,2.28
2022-10-15T18:58:49.890Z,2.40
2022-10-15T19:01:29.753Z,2.58
2022-10-15T19:03:59.022Z,1.88
2022-10-15T19:06:31.649Z,2.05
2022-10-15T19:08:59.939Z,2.20
2022-10-15T19:11:26.988Z,2.28
2022-10-15T19:13:56.734Z,2.22
2022-10-15T19:16:23.719Z,2.28
2022-10-15T19:18:50.436Z,2.00
2022-10-15T19:21:17.241Z,2.08
2022-10-15T19:23:43.928Z,2.22
2022-10-15T19:26:12.861Z,2.15
2022-10-15T19:28:40.383Z,2.45
2022-10-15T19:31:11.659Z,3.10
2022-10-15T19:33:38.680Z,3.83
2022-10-15T19:36:05.539Z,3.25
2022-10-15T19:38:32.315Z,4.05
2022-10-15T19:41:04.020Z,3.67
2022-10-15T19:43:30.708Z,3.72
2022-10-15T19:46:03.830Z,3.80
2022-10-15T19:48:31.171Z,3.40
2022-10-15T19:51:01.838Z,3.40
2022-10-15T19:53:29.452Z,3.40
2022-10-15T19:56:05.205Z,3.13
2022-10-15T19:58:33.126Z,3.33
2022-10-15T20:01:00.410Z,3.10
2022-10-15T20:03:31.118Z,2.95
2022-10-15T20:05:58.013Z,3.25
2022-10-15T20:08:25.515Z,3.10
2022-10-15T20:10:52.645Z,3.10
2022-10-15T20:13:22.289Z,3.45
2022-10-15T20:15:52.688Z,3.55
2022-10-15T20:18:22.435Z,3.15
2022-10-15T20:20:49.708Z,3.33
2022-10-15T20:23:17.282Z,3.05
2022-10-15T20:25:45.488Z,3.40
2022-10-15T20:28:14.319Z,3.05
2022-10-15T20:30:41.952Z,4.00
2022-10-15T20:33:10.350Z,3.40
2022-10-15T20:35:39.012Z,3.30
2022-10-15T20:38:07.113Z,3.38
2022-10-15T20:40:35.591Z,3.22
2022-10-15T20:43:02.284Z,3.33
2022-10-15T20:45:35.156Z,3.45
2022-10-15T20:48:03.626Z,2.90
2022-10-15T20:50:35.631Z,3.65
2022-10-15T20:55:29.279Z,3.03
2022-10-15T20:57:55.973Z,3.17
2022-10-15T21:00:23.243Z,3.60
2022-10-15T21:02:49.926Z,3.53
2022-10-15T21:05:16.634Z,3.20
2022-10-15T21:07:43.324Z,3.20
2022-10-15T21:10:10.274Z,3.20
2022-10-15T21:12:38.278Z,3.40
2022-10-15T21:15:05.635Z,3.30
2022-10-15T21:17:32.331Z,3.47
2022-10-15T21:19:59.080Z,3.25
2022-10-15T21:22:25.762Z,3.35
2022-10-15T21:24:52.476Z,3.40
2022-10-15T21:27:19.148Z,3.30
2022-10-15T21:29:46.129Z,2.97
2022-10-15T21:32:12.815Z,2.97
2022-10-15T21:37:07.234Z,3.05
2022-10-15T21:39:34.089Z,3.50
2022-10-15T21:42:00.775Z,3.00
2022-10-15T21:44:27.502Z,3.22
2022-10-15T21:46:54.233Z,3.20
2022-10-15T21:49:21.061Z,2.85
2022-10-15T21:51:47.737Z,3.15
2022-10-15T21:54:14.446Z,2.53
2022-10-15T21:56:41.129Z,2.65
2022-10-15T21:59:07.908Z,3.20
2022-10-15T22:01:37.879Z,2.75
2022-10-15T22:04:07.900Z,2.60
2022-10-15T22:06:36.617Z,2.80
2022-10-15T22:09:04.486Z,2.78
2022-10-15T22:11:38.356Z,2.58
2022-10-15T22:14:08.149Z,3.08
2022-10-15T22:16:37.601Z,2.97
2022-10-15T22:19:05.473Z,2.90
2022-10-15T22:21:38.066Z,2.25
2022-10-15T22:24:24.017Z,2.25
2022-10-15T22:26:52.471Z,2.40
2022-10-15T22:29:25.907Z,2.35
2022-10-15T22:31:53.680Z,2.38
2022-10-15T22:34:22.370Z,2.40
2022-10-15T22:36:49.626Z,2.20
2022-10-15T22:39:18.533Z,2.17
2022-10-15T22:41:47.176Z,2.22
2022-10-15T22:44:20.145Z,2.33
2022-10-15T22:46:49.301Z,2.28
2022-10-15T22:49:19.816Z,2.40
2022-10-15T22:51:47.878Z,2.78
2022-10-15T22:54:17.090Z,2.42
2022-10-15T22:56:43.923Z,2.42
2022-10-15T22:59:10.812Z,2.80
2022-10-15T23:01:37.812Z,2.10
2022-10-15T23:04:07.457Z,2.22
2022-10-15T23:06:36.669Z,2.30
2022-10-15T23:09:06.447Z,2.30
2022-10-15T23:11:37.573Z,2.88
2022-10-15T23:14:14.003Z,2.03
2022-10-15T23:16:44.750Z,2.28
2022-10-15T23:19:19.278Z,2.40
2022-10-15T23:21:57.888Z,2.47
2022-10-15T23:24:27.241Z,2.30
2022-10-15T23:26:53.981Z,2.03
2022-10-15T23:29:24.349Z,2.22
2022-10-15T23:31:51.674Z,2.03
2022-10-15T23:34:23.201Z,2.50
2022-10-15T23:36:50.991Z,1.92
2022-10-15T23:39:26.661Z,2.22
2022-10-15T23:41:54.408Z,2.00
2022-10-15T23:44:21.503Z,2.40
2022-10-15T23:46:48.228Z,2.05
2022-10-15T23:49:15.216Z,1.90
2022-10-15T23:51:42.136Z,2.30
2022-10-15T23:54:18.084Z,2.17
2022-10-15T23:56:46.695Z,2.40
2022-10-15T23:59:13.841Z,1.80
